Time;durP1;ratioP1;P1;durP2;ratioP2;P2;SDS_P1;SDS_P2;PMS_P1;PMS_P2;Temp;Humidity;BMP_temperature;BMP_pressure;BME280_temperature;BME280_humidity;BME280_pressure;Samples;Min_cycle;Max_cycle;Signal;HPM_P1;HPM_P2
2023/01/01 00:01:13;;;;;;;14.48;2.97;;;15.40;99.90;;;;;;4986260;28;20046;-75
2023/01/01 00:03:39;;;;;;;2.05;1.70;;;15.40;99.90;;;;;;4985586;28;20050;-76
2023/01/01 00:06:12;;;;;;;2.47;2.22;;;15.40;99.90;;;;;;4986901;28;20027;-76
2023/01/01 00:08:39;;;;;;;2.53;1.80;;;15.30;99.90;;;;;;4986054;28;20106;-75
2023/01/01 00:11:07;;;;;;;5.78;2.63;;;15.20;99.90;;;;;;4985381;28;20082;-75
2023/01/01 00:13:35;;;;;;;4.60;2.13;;;15.20;99.90;;;;;;4986690;28;20027;-75
2023/01/01 00:16:09;;;;;;;3.50;2.00;;;15.10;99.90;;;;;;4986837;28;20488;-75
2023/01/01 00:18:34;;;;;;;12.60;3.55;;;15.10;99.90;;;;;;4986925;28;20046;-75
2023/01/01 00:21:06;;;;;;;2.58;1.17;;;15.00;99.90;;;;;;4985073;28;20035;-76
2023/01/01 00:23:33;;;;;;;9.55;2.67;;;14.90;99.90;;;;;;4986716;28;20027;-75
2023/01/01 00:25:59;;;;;;;6.68;2.20;;;14.90;99.90;;;;;;4986690;28;20388;-75
2023/01/01 00:28:26;;;;;;;6.90;2.72;;;14.90;99.90;;;;;;4986698;28;20027;-75
2023/01/01 00:30:52;;;;;;;4.13;1.83;;;14.90;99.90;;;;;;5001360;28;20045;-76
2023/01/01 00:33:18;;;;;;;1.75;1.58;;;14.80;99.90;;;;;;4986398;28;20026;-75
2023/01/01 00:35:43;;;;;;;8.27;2.67;;;14.80;99.90;;;;;;4986611;28;20037;-76
2023/01/01 00:38:09;;;;;;;6.70;2.03;;;14.80;99.90;;;;;;4986360;28;20031;-75
2023/01/01 00:40:35;;;;;;;5.85;3.03;;;14.80;99.90;;;;;;4986498;28;20047;-75
2023/01/01 00:43:02;;;;;;;8.52;1.25;;;14.80;99.90;;;;;;5001457;28;20035;-75
2023/01/01 00:45:28;;;;;;;1.63;1.52;;;14.80;99.90;;;;;;4986636;28;20049;-75
2023/01/01 00:47:53;;;;;;;6.22;2.67;;;14.80;99.90;;;;;;4986352;28;20027;-75
2023/01/01 00:50:20;;;;;;;6.13;2.00;;;14.80;99.90;;;;;;4986123;28;20038;-75
2023/01/01 00:52:47;;;;;;;8.73;2.35;;;14.80;99.90;;;;;;4985286;28;20034;-75
2023/01/01 00:55:13;;;;;;;5.22;2.42;;;14.80;99.90;;;;;;4986882;28;20027;-75
2023/01/01 00:57:39;;;;;;;2.72;2.47;;;14.80;99.90;;;;;;4988711;28;20035;-75
2023/01/01 01:00:06;;;;;;;6.03;3.30;;;14.80;99.90;;;;;;4989558;28;20042;-76
2023/01/01 01:02:33;;;;;;;2.90;1.90;;;14.90;99.90;;;;;;5004718;28;20135;-76
2023/01/01 01:05:00;;;;;;;2.20;1.75;;;14.80;99.90;;;;;;4989817;28;20109;-75
2023/01/01 01:07:26;;;;;;;2.53;2.15;;;14.90;99.90;;;;;;4989908;28;20551;-75
2023/01/01 01:09:51;;;;;;;3.28;1.23;;;14.90;99.90;;;;;;4988349;28;20022;-75
2023/01/01 01:12:17;;;;;;;2.60;1.88;;;15.00;99.90;;;;;;4989622;28;20038;-75
2023/01/01 01:14:43;;;;;;;4.55;1.50;;;14.90;99.90;;;;;;4989775;28;20031;-75
2023/01/01 01:17:09;;;;;;;5.60;2.63;;;14.90;99.90;;;;;;4989620;28;20038;-75
2023/01/01 01:19:34;;;;;;;2.53;1.75;;;15.00;99.90;;;;;;4989157;28;20030;-75
2023/01/01 01:22:01;;;;;;;2.00;1.85;;;14.90;99.90;;;;;;4989512;28;20038;-75
2023/01/01 01:24:28;;;;;;;2.20;2.00;;;14.90;99.90;;;;;;4989357;28;20033;-76
2023/01/01 01:26:54;;;;;;;2.45;2.25;;;14.90;99.90;;;;;;4989550;28;20090;-75
2023/01/01 01:29:19;;;;;;;4.95;1.95;;;14.80;99.90;;;;;;4987979;28;20111;-75
2023/01/01 01:31:45;;;;;;;4.63;1.27;;;14.80;99.90;;;;;;4989223;28;20488;-75
2023/01/01 01:34:11;;;;;;;5.20;2.70;;;14.80;99.90;;;;;;4989107;28;20035;-75
2023/01/01 01:36:37;;;;;;;3.10;1.95;;;14.80;99.90;;;;;;4989321;28;20045;-75
2023/01/01 01:39:03;;;;;;;12.73;1.98;;;14.80;99.90;;;;;;4989265;28;20031;-75
2023/01/01 01:41:29;;;;;;;5.75;2.15;;;14.80;99.90;;;;;;4988771;28;20045;-75
2023/01/01 01:43:58;;;;;;;4.68;2.05;;;14.80;99.90;;;;;;4986262;28;20030;-76
2023/01/01 01:46:31;;;;;;;3.33;2.13;;;14.80;99.90;;;;;;4968407;29;20042;-76
2023/01/01 01:49:13;;;;;;;2.78;2.05;;;14.80;99.90;;;;;;4984546;28;20314;-75
2023/01/01 01:51:40;;;;;;;5.05;1.77;;;14.80;99.90;;;;;;4969607;28;20031;-76
2023/01/01 01:54:13;;;;;;;7.32;2.35;;;14.80;99.90;;;;;;4969772;28;20043;-76
2023/01/01 01:56:48;;;;;;;12.75;2.75;;;14.70;99.90;;;;;;4969458;28;20039;-76
2023/01/01 01:59:17;;;;;;;8.02;2.45;;;14.70;99.90;;;;;;4969539;28;20114;-76
2023/01/01 02:01:44;;;;;;;4.78;1.98;;;14.70;99.90;;;;;;4969289;28;20051;-75
2023/01/01 02:04:11;;;;;;;3.42;2.10;;;14.70;99.90;;;;;;4969569;28;20095;-75
2023/01/01 02:06:38;;;;;;;7.72;1.55;;;14.70;99.90;;;;;;4968510;28;20053;-75
2023/01/01 02:09:07;;;;;;;12.32;2.72;;;14.70;99.90;;;;;;4969157;28;20079;-75
2023/01/01 02:11:33;;;;;;;0.93;0.93;;;14.70;99.90;;;;;;4987956;28;20101;-76
2023/01/01 02:14:00;;;;;;;7.10;2.13;;;14.60;99.90;;;;;;4988287;28;20508;-76
2023/01/01 02:16:46;;;;;;;3.42;2.13;;;14.70;99.90;;;;;;4987328;28;20038;-75
2023/01/01 02:19:49;;;;;;;1.80;1.15;;;14.70;99.90;;;;;;4987167;28;20034;-76
2023/01/01 02:22:21;;;;;;;4.07;2.17;;;14.70;99.90;;;;;;4968913;28;20058;-75
2023/01/01 02:25:05;;;;;;;9.63;1.90;;;14.60;99.90;;;;;;4967599;28;20071;-76
2023/01/01 02:27:46;;;;;;;5.20;1.45;;;14.60;99.90;;;;;;4967833;29;20066;-75
2023/01/01 02:30:13;;;;;;;5.07;2.03;;;14.50;99.90;;;;;;4976263;28;20029;-76
2023/01/01 02:32:44;;;;;;;4.82;1.85;;;14.60;99.90;;;;;;4988213;28;20042;-76
2023/01/01 02:35:35;;;;;;;3.45;2.55;;;14.60;99.90;;;;;;4988225;28;20038;-75
2023/01/01 02:38:24;;;;;;;2.13;1.33;;;14.60;99.90;;;;;;4988292;28;20034;-76
2023/01/01 02:41:12;;;;;;;3.90;1.27;;;14.60;99.90;;;;;;4986468;28;20091;-75
2023/01/01 02:43:38;;;;;;;5.80;2.63;;;14.60;99.90;;;;;;4988089;28;20023;-75
2023/01/01 02:46:06;;;;;;;4.60;1.60;;;14.50;99.90;;;;;;4987848;28;20023;-75
2023/01/01 02:48:41;;;;;;;2.05;1.85;;;14.40;99.90;;;;;;4987946;28;20031;-75
2023/01/01 02:51:35;;;;;;;9.23;2.65;;;14.40;99.90;;;;;;4987490;28;20035;-75
2023/01/01 02:54:17;;;;;;;11.32;2.60;;;14.40;99.90;;;;;;4987716;28;20027;-76
2023/01/01 02:56:55;;;;;;;9.00;2.30;;;14.40;99.90;;;;;;4987798;28;20038;-75
2023/01/01 03:02:46;;;;;;;3.47;1.65;;;14.50;99.90;;;;;;4968277;28;20039;-75
2023/01/01 03:05:17;;;;;;;11.38;1.98;;;14.50;99.90;;;;;;4977731;28;20031;-75
2023/01/01 03:08:01;;;;;;;3.05;1.50;;;14.50;99.90;;;;;;4987228;28;20038;-75
2023/01/01 03:10:39;;;;;;;2.13;1.70;;;14.50;99.90;;;;;;4986358;28;20034;-75
2023/01/01 03:13:19;;;;;;;1.80;1.65;;;14.50;99.90;;;;;;4987367;28;20031;-76
2023/01/01 03:15:58;;;;;;;1.52;1.40;;;14.50;99.90;;;;;;4987790;28;20062;-75
2023/01/01 03:18:32;;;;;;;1.30;1.20;;;14.40;99.90;;;;;;4987410;28;20042;-75
2023/01/01 03:21:02;;;;;;;2.55;2.17;;;14.40;99.90;;;;;;4987280;28;20027;-75
2023/01/01 03:23:36;;;;;;;2.78;1.52;;;14.50;99.90;;;;;;4987299;28;20023;-75
2023/01/01 03:26:07;;;;;;;3.38;2.05;;;14.40;99.90;;;;;;4987307;28;20030;-75
2023/01/01 03:28:44;;;;;;;5.53;1.98;;;14.40;99.90;;;;;;4968049;28;20440;-75
2023/01/01 03:31:13;;;;;;;7.57;2.28;;;14.40;99.90;;;;;;4968001;28;20040;-76
2023/01/01 03:33:43;;;;;;;2.23;1.40;;;14.30;99.90;;;;;;4967819;28;20027;-75
2023/01/01 03:36:14;;;;;;;7.78;2.47;;;14.30;99.90;;;;;;4967199;28;20034;-75
2023/01/01 03:38:56;;;;;;;6.00;2.28;;;14.30;99.90;;;;;;4986234;28;20151;-75
2023/01/01 03:41:43;;;;;;;2.00;1.27;;;14.20;99.90;;;;;;4987151;28;20049;-75
2023/01/01 03:44:42;;;;;;;6.45;2.13;;;14.20;99.90;;;;;;4987307;28;20442;-75
2023/01/01 03:47:08;;;;;;;1.67;1.33;;;14.20;99.90;;;;;;4986778;28;20126;-75
2023/01/01 03:49:34;;;;;;;1.65;1.13;;;14.20;99.90;;;;;;4986985;28;20290;-75
2023/01/01 03:52:14;;;;;;;2.50;1.25;;;14.20;99.90;;;;;;4987040;28;20456;-75
2023/01/01 03:55:24;;;;;;;1.48;1.35;;;14.20;99.90;;;;;;4986931;28;20034;-76
2023/01/01 03:58:04;;;;;;;3.15;1.92;;;14.20;99.90;;;;;;4970481;28;20133;-76
2023/01/01 04:00:36;;;;;;;5.07;1.33;;;14.20;99.90;;;;;;4985725;28;20125;-75
2023/01/01 04:03:09;;;;;;;4.35;2.00;;;14.10;99.90;;;;;;5001748;28;20045;-75
2023/01/01 04:05:37;;;;;;;4.78;1.65;;;14.20;99.90;;;;;;4986763;28;20035;-75
2023/01/01 04:08:04;;;;;;;4.32;1.98;;;14.20;99.90;;;;;;4986654;28;20027;-75
2023/01/01 04:10:33;;;;;;;3.85;1.67;;;14.20;99.90;;;;;;4986867;28;20051;-75
2023/01/01 04:13:02;;;;;;;0.70;0.70;;;14.20;99.90;;;;;;4986793;28;20046;-75
2023/01/01 04:15:28;;;;;;;4.37;1.27;;;14.20;99.90;;;;;;4986780;28;20034;-75
2023/01/01 04:17:54;;;;;;;5.60;2.08;;;14.20;99.90;;;;;;4986362;28;20772;-75
2023/01/01 04:20:21;;;;;;;7.07;3.33;;;14.20;99.90;;;;;;4985137;28;20050;-75
2023/01/01 04:22:47;;;;;;;6.15;2.42;;;14.20;99.90;;;;;;4985269;28;20050;-75
2023/01/01 04:25:13;;;;;;;5.50;2.08;;;14.20;99.90;;;;;;4985569;28;20026;-75
2023/01/01 04:27:40;;;;;;;4.80;1.80;;;14.20;99.90;;;;;;4986421;28;20043;-75
2023/01/01 04:30:08;;;;;;;4.32;2.50;;;14.20;99.90;;;;;;4987076;28;20115;-75
2023/01/01 04:32:36;;;;;;;5.80;1.45;;;14.10;99.90;;;;;;4989272;28;20117;-76
2023/01/01 04:35:02;;;;;;;1.17;0.75;;;14.10;99.90;;;;;;4989176;28;20447;-75
2023/01/01 04:37:28;;;;;;;4.35;2.10;;;14.10;99.90;;;;;;4989739;28;20023;-75
2023/01/01 04:39:54;;;;;;;6.72;1.13;;;14.10;99.90;;;;;;4973036;28;20093;-75
2023/01/01 04:42:20;;;;;;;6.95;2.17;;;14.10;99.90;;;;;;4956825;28;20034;-75
2023/01/01 04:44:46;;;;;;;2.00;1.40;;;14.00;99.90;;;;;;4986023;28;20020;-75
2023/01/01 04:47:12;;;;;;;8.45;2.10;;;14.00;99.90;;;;;;4978795;28;20037;-75
2023/01/01 04:49:38;;;;;;;4.43;2.85;;;14.00;99.90;;;;;;4988624;28;20038;-75
2023/01/01 04:52:04;;;;;;;3.40;2.10;;;14.00;99.90;;;;;;4990202;28;20031;-75
2023/01/01 04:54:29;;;;;;;1.15;0.88;;;14.00;99.90;;;;;;4990276;28;20042;-76
2023/01/01 04:56:55;;;;;;;2.58;1.75;;;14.00;99.90;;;;;;4989713;28;20033;-75
2023/01/01 04:59:21;;;;;;;2.03;1.25;;;14.00;99.90;;;;;;4989994;28;20055;-76
2023/01/01 05:01:47;;;;;;;6.72;2.78;;;13.90;99.90;;;;;;4989487;28;20058;-75
2023/01/01 05:04:14;;;;;;;6.97;1.77;;;13.90;99.90;;;;;;4989730;28;20058;-75
2023/01/01 05:06:40;;;;;;;3.08;2.10;;;13.90;99.90;;;;;;5004858;28;20030;-76
2023/01/01 05:09:08;;;;;;;3.50;2.38;;;13.90;99.90;;;;;;4989726;28;20034;-75
2023/01/01 05:11:34;;;;;;;7.40;2.15;;;13.80;99.90;;;;;;4985707;28;20037;-75
2023/01/01 05:14:01;;;;;;;2.00;1.67;;;13.80;99.90;;;;;;4968768;28;20032;-76
2023/01/01 05:16:29;;;;;;;2.60;1.88;;;13.80;99.90;;;;;;4974654;28;20035;-75
2023/01/01 05:18:55;;;;;;;2.55;1.08;;;13.80;99.90;;;;;;4975517;28;20035;-75
2023/01/01 05:21:24;;;;;;;2.80;1.42;;;13.80;99.90;;;;;;4982731;28;20502;-75
2023/01/01 05:23:55;;;;;;;1.90;1.52;;;13.80;99.90;;;;;;4977174;28;20499;-75
2023/01/01 05:26:23;;;;;;;4.78;1.98;;;13.70;99.90;;;;;;4987066;28;20113;-75
2023/01/01 05:28:49;;;;;;;3.67;1.98;;;13.60;99.90;;;;;;4985516;28;20030;-75
2023/01/01 05:31:17;;;;;;;2.13;1.63;;;13.70;99.90;;;;;;4988299;28;20386;-76
2023/01/01 05:33:44;;;;;;;3.78;1.95;;;13.60;99.90;;;;;;4986831;28;20030;-75
2023/01/01 05:36:15;;;;;;;9.13;2.17;;;13.60;99.90;;;;;;4987218;28;20046;-75
2023/01/01 05:38:50;;;;;;;3.90;1.55;;;13.60;99.90;;;;;;4987228;28;20023;-76
2023/01/01 05:41:18;;;;;;;2.30;1.55;;;13.70;99.90;;;;;;4974320;28;20035;-76
2023/01/01 05:43:44;;;;;;;5.68;1.58;;;13.70;99.90;;;;;;4987381;28;20114;-76
2023/01/01 05:46:14;;;;;;;5.15;1.48;;;13.80;99.90;;;;;;4979651;28;20105;-75
2023/01/01 05:48:39;;;;;;;4.75;1.60;;;13.80;99.90;;;;;;4988537;28;20022;-76
2023/01/01 05:51:16;;;;;;;2.70;1.58;;;13.80;99.90;;;;;;4988591;28;20085;-75
2023/01/01 05:53:43;;;;;;;1.73;1.63;;;13.80;99.90;;;;;;4988625;28;20031;-75
2023/01/01 05:56:09;;;;;;;5.82;2.08;;;13.80;99.90;;;;;;4987489;28;20031;-75
2023/01/01 05:58:35;;;;;;;3.08;2.35;;;13.80;99.90;;;;;;4987774;28;20035;-75
2023/01/01 06:01:10;;;;;;;3.08;2.42;;;13.80;99.90;;;;;;4986687;28;20047;-75
2023/01/01 06:03:35;;;;;;;3.17;1.70;;;13.80;99.90;;;;;;4988439;28;20033;-75
2023/01/01 06:06:10;;;;;;;3.05;1.83;;;13.80;99.90;;;;;;4984790;28;20050;-75
2023/01/01 06:08:37;;;;;;;2.88;1.63;;;13.80;99.90;;;;;;4987113;28;20031;-75
2023/01/01 06:11:06;;;;;;;1.08;1.05;;;13.80;99.90;;;;;;4987063;28;20074;-75
2023/01/01 06:13:32;;;;;;;2.28;1.60;;;13.80;99.90;;;;;;4988071;28;20031;-75
2023/01/01 06:16:00;;;;;;;2.60;1.90;;;13.80;99.90;;;;;;4988255;28;20118;-75
2023/01/01 06:18:29;;;;;;;3.00;1.75;;;13.80;99.90;;;;;;4986846;28;20037;-74
2023/01/01 06:21:01;;;;;;;4.68;1.30;;;13.80;99.90;;;;;;4974525;28;20024;-75
2023/01/01 06:23:28;;;;;;;11.73;2.30;;;13.80;99.90;;;;;;4988267;28;20091;-75
2023/01/01 06:25:54;;;;;;;4.68;2.17;;;13.80;99.90;;;;;;4967805;28;20037;-75
2023/01/01 06:28:20;;;;;;;3.38;2.63;;;13.70;99.90;;;;;;4987895;28;20046;-75
2023/01/01 06:30:46;;;;;;;3.25;1.90;;;13.80;99.90;;;;;;4988251;28;20039;-76
2023/01/01 06:33:11;;;;;;;4.47;1.58;;;13.70;99.90;;;;;;4987673;28;20041;-76
2023/01/01 06:35:37;;;;;;;4.35;1.67;;;13.70;99.90;;;;;;4988284;28;20109;-76
2023/01/01 06:38:03;;;;;;;5.40;1.60;;;13.70;99.90;;;;;;4988320;28;20037;-76
2023/01/01 06:40:29;;;;;;;3.33;2.10;;;13.70;99.90;;;;;;4988022;28;20045;-76
2023/01/01 06:42:55;;;;;;;4.72;1.55;;;13.60;99.90;;;;;;4988012;28;20067;-76
2023/01/01 06:45:21;;;;;;;4.63;1.70;;;13.50;99.90;;;;;;4987922;28;20159;-76
2023/01/01 06:47:47;;;;;;;2.97;1.33;;;13.50;99.90;;;;;;4986675;28;20035;-76
2023/01/01 06:50:13;;;;;;;5.53;2.90;;;13.40;99.90;;;;;;4988137;28;20058;-75
2023/01/01 06:52:39;;;;;;;5.43;2.45;;;13.40;99.90;;;;;;4987204;28;20047;-75
2023/01/01 06:55:05;;;;;;;4.70;1.92;;;13.40;99.90;;;;;;4987373;28;20031;-76
2023/01/01 06:57:33;;;;;;;10.57;2.83;;;13.30;99.90;;;;;;4984491;28;20046;-75
2023/01/01 06:59:59;;;;;;;11.05;2.20;;;13.20;99.90;;;;;;4987047;28;20054;-76
2023/01/01 07:02:25;;;;;;;5.45;3.00;;;13.20;99.90;;;;;;4987691;28;20041;-76
2023/01/01 07:04:50;;;;;;;5.22;2.10;;;13.20;99.90;;;;;;4987812;28;20023;-76
2023/01/01 07:07:16;;;;;;;5.22;2.50;;;13.20;99.90;;;;;;4987655;28;20404;-76
2023/01/01 07:09:42;;;;;;;5.60;2.50;;;13.10;99.90;;;;;;4986205;28;20083;-76
2023/01/01 07:12:08;;;;;;;5.18;2.22;;;13.10;99.90;;;;;;4987754;28;20074;-76
2023/01/01 07:14:33;;;;;;;4.15;2.78;;;13.10;99.90;;;;;;4985877;28;20031;-76
2023/01/01 07:16:59;;;;;;;3.55;3.13;;;13.10;99.90;;;;;;4986915;28;20118;-76
2023/01/01 07:19:25;;;;;;;4.90;3.60;;;13.00;99.90;;;;;;4987269;28;20047;-75
2023/01/01 07:21:53;;;;;;;4.47;1.98;;;13.00;99.90;;;;;;4987217;28;20038;-76
2023/01/01 07:24:19;;;;;;;3.78;2.35;;;12.90;99.90;;;;;;4987329;28;20045;-76
2023/01/01 07:26:45;;;;;;;4.15;2.88;;;12.90;99.90;;;;;;4985694;28;20053;-76
2023/01/01 07:29:12;;;;;;;3.63;3.30;;;12.90;99.90;;;;;;4986920;28;20047;-76
2023/01/01 07:31:40;;;;;;;6.60;2.83;;;12.90;99.90;;;;;;4985923;28;20022;-75
2023/01/01 07:34:09;;;;;;;5.22;2.85;;;12.90;99.90;;;;;;4987206;28;20030;-76
2023/01/01 07:36:35;;;;;;;4.78;2.90;;;12.90;99.90;;;;;;4986917;28;20039;-76
2023/01/01 07:39:01;;;;;;;8.40;2.95;;;12.90;99.90;;;;;;4985819;28;20038;-76
2023/01/01 07:41:27;;;;;;;7.38;3.05;;;12.90;99.90;;;;;;4986033;28;20039;-75
2023/01/01 07:43:53;;;;;;;10.45;2.38;;;12.90;99.90;;;;;;4986854;28;20094;-76
2023/01/01 07:46:19;;;;;;;30.63;19.60;;;12.90;99.90;;;;;;4986382;28;20039;-75
2023/01/01 07:48:45;;;;;;;7.70;4.65;;;12.80;99.90;;;;;;4986976;28;20031;-76
2023/01/01 07:51:11;;;;;;;8.23;5.82;;;12.80;99.90;;;;;;4985670;28;20041;-76
2023/01/01 07:53:36;;;;;;;4.65;3.78;;;12.80;99.90;;;;;;4987055;28;20029;-76
2023/01/01 07:56:02;;;;;;;11.73;4.60;;;12.80;99.90;;;;;;4985370;28;20050;-76
2023/01/01 07:58:28;;;;;;;4.50;2.28;;;12.80;99.90;;;;;;4986692;28;20027;-75
2023/01/01 08:00:54;;;;;;;4.43;3.63;;;12.80;99.90;;;;;;4969221;28;20051;-76
2023/01/01 08:03:20;;;;;;;2.88;2.67;;;12.80;99.90;;;;;;4986907;28;20035;-76
2023/01/01 08:05:47;;;;;;;4.53;3.72;;;12.90;99.90;;;;;;4987909;28;20023;-75
2023/01/01 08:08:13;;;;;;;5.75;2.95;;;13.00;99.90;;;;;;4973558;28;20022;-76
2023/01/01 08:10:39;;;;;;;3.70;2.78;;;12.90;99.90;;;;;;4990945;28;20039;-75
2023/01/01 08:13:07;;;;;;;3.55;2.28;;;13.00;99.90;;;;;;4989518;28;20035;-76
2023/01/01 08:15:33;;;;;;;4.97;2.30;;;13.10;99.90;;;;;;4989293;28;20027;-75
2023/01/01 08:18:01;;;;;;;2.58;2.38;;;13.10;99.90;;;;;;4990971;28;20155;-75
2023/01/01 08:20:29;;;;;;;7.45;3.95;;;13.10;99.90;;;;;;4986987;28;20106;-75
2023/01/01 08:22:56;;;;;;;3.78;2.45;;;13.20;99.90;;;;;;4989108;28;20029;-76
2023/01/01 08:25:24;;;;;;;4.88;2.42;;;13.20;99.90;;;;;;4988805;28;20039;-75
2023/01/01 08:27:50;;;;;;;3.05;2.53;;;13.20;99.90;;;;;;4990416;28;20039;-76
2023/01/01 08:30:16;;;;;;;5.05;3.20;;;13.20;99.90;;;;;;4989219;28;20030;-76
2023/01/01 08:32:42;;;;;;;3.92;3.08;;;13.20;99.90;;;;;;4989364;28;20046;-76
2023/01/01 08:35:08;;;;;;;2.80;2.60;;;13.20;99.90;;;;;;4989828;28;20058;-75
2023/01/01 08:37:34;;;;;;;4.13;2.20;;;13.30;99.90;;;;;;4990350;28;20101;-76
2023/01/01 08:40:00;;;;;;;3.92;3.33;;;13.30;99.90;;;;;;4990496;28;20054;-75
2023/01/01 08:42:26;;;;;;;6.47;2.22;;;13.30;99.90;;;;;;4990073;28;20039;-76
2023/01/01 08:44:52;;;;;;;5.22;3.03;;;13.30;99.90;;;;;;4989679;28;20023;-75
2023/01/01 08:47:26;;;;;;;4.88;3.08;;;13.40;99.90;;;;;;4989859;28;20027;-74
2023/01/01 08:49:52;;;;;;;3.92;2.42;;;13.40;99.90;;;;;;4989755;28;20058;-75
2023/01/01 08:52:18;;;;;;;11.23;3.17;;;13.40;99.90;;;;;;4988681;28;20046;-75
2023/01/01 08:54:44;;;;;;;7.43;2.10;;;13.40;99.90;;;;;;4989957;28;20062;-75
2023/01/01 08:57:10;;;;;;;9.23;3.65;;;13.40;99.90;;;;;;4989826;28;20031;-75
2023/01/01 08:59:36;;;;;;;2.38;1.52;;;13.40;99.90;;;;;;4989623;28;20046;-75
2023/01/01 09:02:03;;;;;;;8.43;3.05;;;13.40;99.90;;;;;;4990011;28;20107;-75
2023/01/01 09:04:29;;;;;;;5.93;2.60;;;13.40;99.90;;;;;;4989477;28;20039;-75
2023/01/01 09:06:55;;;;;;;9.40;4.30;;;13.40;99.90;;;;;;4972388;28;20480;-75
2023/01/01 09:09:21;;;;;;;1.90;1.75;;;13.50;99.90;;;;;;4989844;28;20062;-75
2023/01/01 09:11:57;;;;;;;5.85;2.42;;;13.50;99.90;;;;;;4989726;28;20039;-75
2023/01/01 09:14:24;;;;;;;3.40;2.72;;;13.40;99.90;;;;;;4968823;28;20031;-75
2023/01/01 09:16:49;;;;;;;4.82;2.40;;;13.30;99.90;;;;;;4980888;28;20540;-75
2023/01/01 09:19:17;;;;;;;8.68;1.85;;;13.30;99.90;;;;;;4989617;28;20481;-75
2023/01/01 09:21:43;;;;;;;6.93;2.72;;;13.30;99.90;;;;;;4989226;28;20033;-75
2023/01/01 09:24:09;;;;;;;5.25;2.17;;;13.40;99.90;;;;;;4989107;28;20027;-75
2023/01/01 09:26:34;;;;;;;5.28;2.70;;;13.30;99.90;;;;;;4989305;28;20027;-75
2023/01/01 09:29:00;;;;;;;3.63;2.17;;;13.30;99.90;;;;;;4989338;28;20034;-75
2023/01/01 09:31:26;;;;;;;6.85;2.33;;;13.30;99.90;;;;;;4989593;28;20035;-75
2023/01/01 09:33:52;;;;;;;2.30;1.77;;;13.30;99.90;;;;;;4988925;28;20074;-75
2023/01/01 09:36:18;;;;;;;6.70;4.07;;;13.40;99.90;;;;;;4987204;28;20035;-75
2023/01/01 09:38:53;;;;;;;13.40;7.35;;;13.40;99.90;;;;;;4987924;28;20030;-76
2023/01/01 09:41:38;;;;;;;14.05;6.90;;;13.40;99.90;;;;;;4987713;28;20030;-76
2023/01/01 09:44:17;;;;;;;5.72;4.38;;;13.40;99.90;;;;;;4988069;28;20030;-76
2023/01/01 09:46:43;;;;;;;7.38;2.90;;;13.50;99.90;;;;;;4989032;28;20030;-76
2023/01/01 09:49:16;;;;;;;9.98;2.75;;;13.50;99.90;;;;;;4989132;28;20019;-75
2023/01/01 09:51:46;;;;;;;6.65;3.22;;;13.60;99.90;;;;;;4989140;28;20040;-76
2023/01/01 09:54:18;;;;;;;7.40;2.47;;;13.60;99.90;;;;;;4974780;28;20050;-76
2023/01/01 09:56:44;;;;;;;4.28;2.55;;;13.60;99.90;;;;;;4969573;28;20039;-75
2023/01/01 09:59:10;;;;;;;3.65;2.50;;;13.70;99.90;;;;;;4969483;28;20031;-75
2023/01/01 10:02:02;;;;;;;5.95;2.97;;;13.80;99.90;;;;;;4969452;28;20050;-75
2023/01/01 10:04:40;;;;;;;6.05;2.45;;;13.80;99.90;;;;;;4969664;28;20023;-75
2023/01/01 10:07:30;;;;;;;4.38;2.00;;;13.90;99.90;;;;;;4969315;28;20034;-75
2023/01/01 10:10:00;;;;;;;;;;;13.90;99.90;;;;;;4969914;28;20054;-76
2023/01/01 10:12:55;;;;;;;5.47;1.83;;;14.10;99.90;;;;;;4971359;28;19998;-76
2023/01/01 10:15:30;;;;;;;6.40;2.45;;;14.10;99.90;;;;;;4970069;28;20035;-75
2023/01/01 10:18:05;;;;;;;3.97;2.42;;;14.20;99.90;;;;;;4985769;28;20041;-75
2023/01/01 10:20:41;;;;;;;4.90;2.42;;;14.20;99.90;;;;;;4988095;28;20046;-76
2023/01/01 10:23:18;;;;;;;3.30;2.53;;;14.20;99.90;;;;;;4988370;28;20034;-75
2023/01/01 10:25:44;;;;;;;2.50;2.22;;;14.40;99.90;;;;;;4988294;28;20035;-76
2023/01/01 10:28:22;;;;;;;5.22;2.55;;;14.40;99.90;;;;;;4987545;28;20034;-75
2023/01/01 10:30:57;;;;;;;10.27;3.08;;;14.40;99.90;;;;;;4988115;28;20027;-75
2023/01/01 10:33:24;;;;;;;3.22;1.50;;;14.30;99.90;;;;;;4988064;28;20369;-76
2023/01/01 10:35:55;;;;;;;4.60;2.60;;;14.40;99.90;;;;;;4987978;28;20546;-76
2023/01/01 10:38:23;;;;;;;2.75;2.08;;;14.50;99.90;;;;;;4986968;28;20062;-75
2023/01/01 10:40:51;;;;;;;4.95;2.78;;;14.50;99.90;;;;;;4986897;28;20038;-76
2023/01/01 10:43:18;;;;;;;2.90;1.95;;;14.50;99.90;;;;;;4987940;28;20022;-76
2023/01/01 10:45:49;;;;;;;4.25;1.60;;;14.50;99.90;;;;;;4986271;28;20102;-76
2023/01/01 10:48:20;;;;;;;4.53;1.90;;;14.50;99.90;;;;;;4987979;28;20034;-76
2023/01/01 10:50:45;;;;;;;5.72;4.82;;;14.50;99.90;;;;;;4987590;28;20058;-75
2023/01/01 10:53:42;;;;;;;5.05;2.75;;;14.60;99.90;;;;;;4987940;28;20086;-76
2023/01/01 10:56:15;;;;;;;4.40;3.72;;;14.70;99.90;;;;;;4987092;28;20038;-76
2023/01/01 10:58:45;;;;;;;8.93;5.30;;;14.70;99.90;;;;;;4986490;28;20038;-76
2023/01/01 11:01:17;;;;;;;;;;;14.70;99.90;;;;;;4987879;28;20055;-76
2023/01/01 11:04:12;;;;;;;10.55;4.13;;;14.70;99.90;;;;;;4987736;28;19914;-76
2023/01/01 11:06:45;;;;;;;9.43;6.00;;;14.80;99.90;;;;;;4984708;28;20053;-76
2023/01/01 11:09:30;;;;;;;18.08;9.98;;;14.90;99.90;;;;;;4985260;28;20495;-75
2023/01/01 11:12:00;;;;;;;57.47;32.20;;;15.00;99.90;;;;;;4984897;28;20094;-75
2023/01/01 11:14:31;;;;;;;24.05;11.02;;;15.00;99.90;;;;;;4984895;28;20034;-76
2023/01/01 11:16:58;;;;;;;18.92;8.15;;;15.20;99.90;;;;;;4986936;28;20027;-76
2023/01/01 11:19:31;;;;;;;4.63;2.33;;;15.20;99.90;;;;;;4986112;28;20030;-75
2023/01/01 11:21:58;;;;;;;6.20;2.90;;;15.30;99.90;;;;;;4986067;28;20062;-76
2023/01/01 11:24:27;;;;;;;9.52;3.55;;;15.50;99.90;;;;;;4987290;28;20026;-76
2023/01/01 11:27:19;;;;;;;7.07;2.95;;;15.40;99.90;;;;;;4985748;28;20022;-75
2023/01/01 11:29:45;;;;;;;13.63;4.30;;;15.30;99.90;;;;;;4985988;28;20180;-75
2023/01/01 11:32:29;;;;;;;4.60;1.92;;;15.20;99.90;;;;;;4987189;28;20038;-76
2023/01/01 11:35:01;;;;;;;3.35;3.05;;;15.30;99.90;;;;;;4986785;28;20030;-76
2023/01/01 11:37:38;;;;;;;5.32;2.22;;;15.20;99.90;;;;;;4984020;28;20023;-76
2023/01/01 11:40:14;;;;;;;6.20;2.55;;;15.20;99.90;;;;;;4967270;28;20023;-76
2023/01/01 11:42:46;;;;;;;3.45;2.20;;;15.20;99.90;;;;;;4979082;28;20034;-76
2023/01/01 11:45:19;;;;;;;2.17;1.58;;;15.10;99.90;;;;;;4973397;28;20380;-76
2023/01/01 11:48:01;;;;;;;6.68;2.03;;;15.10;99.90;;;;;;4986293;28;20062;-76
2023/01/01 11:50:39;;;;;;;3.78;1.77;;;15.10;99.90;;;;;;4969005;28;20103;-76
2023/01/01 11:53:21;;;;;;;4.00;2.17;;;15.00;99.90;;;;;;4985294;28;20683;-75
2023/01/01 11:56:21;;;;;;;4.18;2.75;;;15.00;99.90;;;;;;4974366;28;20062;-76
2023/01/01 11:59:13;;;;;;;2.90;2.10;;;14.90;99.90;;;;;;4975868;28;20435;-76
2023/01/01 12:01:47;;;;;;;8.85;2.88;;;14.80;99.90;;;;;;4982059;28;20058;-76
2023/01/01 12:04:38;;;;;;;8.18;2.85;;;14.80;99.90;;;;;;4983979;28;20030;-76
2023/01/01 12:07:07;;;;;;;5.05;2.25;;;14.80;99.90;;;;;;4980346;28;20476;-76
2023/01/01 12:09:57;;;;;;;4.68;2.63;;;14.70;99.90;;;;;;4984031;28;20480;-76
2023/01/01 12:12:47;;;;;;;5.75;2.38;;;14.60;99.90;;;;;;4986226;28;20033;-76
2023/01/01 12:15:20;;;;;;;3.72;1.60;;;14.60;99.90;;;;;;4974400;28;20062;-76
2023/01/01 12:18:00;;;;;;;4.57;2.60;;;14.60;99.90;;;;;;4984453;28;20477;-76
2023/01/01 12:20:52;;;;;;;9.32;2.22;;;14.60;99.90;;;;;;4985192;28;20031;-76
2023/01/01 12:23:19;;;;;;;6.75;1.83;;;14.60;99.90;;;;;;4966180;28;20035;-75
2023/01/01 12:25:54;;;;;;;3.72;2.58;;;14.60;99.90;;;;;;4986055;28;20045;-76
2023/01/01 12:28:28;;;;;;;2.35;1.77;;;14.60;99.90;;;;;;4968434;28;20074;-75
2023/01/01 12:31:09;;;;;;;11.57;3.40;;;14.60;99.90;;;;;;4969021;28;20395;-76
2023/01/01 12:33:48;;;;;;;6.50;2.70;;;14.60;99.90;;;;;;4982667;28;20054;-76
2023/01/01 12:36:28;;;;;;;6.75;2.30;;;14.60;99.90;;;;;;4975470;28;20099;-76
2023/01/01 12:39:23;;;;;;;7.70;2.90;;;14.70;99.90;;;;;;4981285;28;20077;-76
2023/01/01 12:42:16;;;;;;;3.95;2.05;;;14.80;99.90;;;;;;4984664;28;20305;-76
2023/01/01 12:44:48;;;;;;;8.30;3.58;;;14.80;99.90;;;;;;4982130;28;20069;-76
2023/01/01 12:47:23;;;;;;;7.53;3.80;;;14.80;99.90;;;;;;4972288;28;20034;-75
2023/01/01 12:50:14;;;;;;;9.15;2.00;;;14.70;99.90;;;;;;4981811;28;20031;-76
2023/01/01 12:52:53;;;;;;;6.53;1.75;;;14.70;99.90;;;;;;4972420;28;20034;-76
2023/01/01 12:55:58;;;;;;;4.57;2.50;;;14.70;99.90;;;;;;4967339;28;20035;-76
2023/01/01 12:58:41;;;;;;;7.43;2.38;;;14.60;99.90;;;;;;4988076;28;20041;-76
2023/01/01 13:01:15;;;;;;;6.22;3.22;;;14.50;99.90;;;;;;4972034;28;20047;-76
2023/01/01 13:04:06;;;;;;;17.20;12.13;;;14.50;99.90;;;;;;4988142;28;20019;-76
2023/01/01 13:06:51;;;;;;;13.27;8.02;;;14.40;99.90;;;;;;4971247;28;20035;-76
2023/01/01 13:09:26;;;;;;;5.40;2.25;;;14.40;99.90;;;;;;4987421;28;20094;-76